sensor_id;sensor_type;location;lat;lon;timestamp;P1;durP1;ratioP1;P2;durP2;ratioP2
12792;SDS011;6460;42.684;23.260;2024-01-30T07:43:13;3.57;;;2.80;;
12792;SDS011;6460;42.684;23.260;2024-01-30T08:07:48;5.20;;;3.70;;
12792;SDS011;6460;42.684;23.260;2024-01-30T12:14:08;8.03;;;3.07;;
12792;SDS011;6460;42.684;23.260;2024-01-30T15:30:13;8.33;;;5.80;;
12792;SDS011;6460;42.684;23.260;2024-01-30T15:32:49;10.73;;;5.90;;
12792;SDS011;6460;42.684;23.260;2024-01-30T15:35:20;8.83;;;5.10;;
12792;SDS011;6460;42.684;23.260;2024-01-30T15:37:50;6.40;;;4.83;;
12792;SDS011;6460;42.684;23.260;2024-01-30T15:40:19;8.90;;;4.67;;
12792;SDS011;6460;42.684;23.260;2024-01-30T16:04:12;8.70;;;5.93;;
12792;SDS011;6460;42.684;23.260;2024-01-30T16:11:50;8.47;;;5.63;;
12792;SDS011;6460;42.684;23.260;2024-01-30T16:14:17;10.07;;;5.57;;
12792;SDS011;6460;42.684;23.260;2024-01-30T16:16:44;9.77;;;6.20;;
12792;SDS011;6460;42.684;23.260;2024-01-30T16:19:14;8.27;;;6.00;;
12792;SDS011;6460;42.684;23.260;2024-01-30T16:21:42;12.67;;;6.43;;
12792;SDS011;6460;42.684;23.260;2024-01-30T16:24:10;9.33;;;6.03;;
12792;SDS011;6460;42.684;23.260;2024-01-30T16:26:38;11.13;;;6.43;;
12792;SDS011;6460;42.684;23.260;2024-01-30T16:29:07;9.87;;;6.37;;
12792;SDS011;6460;42.684;23.260;2024-01-30T16:31:36;10.63;;;6.37;;
12792;SDS011;6460;42.684;23.260;2024-01-30T16:34:03;13.00;;;7.00;;
12792;SDS011;6460;42.684;23.260;2024-01-30T16:36:32;11.23;;;6.63;;
12792;SDS011;6460;42.684;23.260;2024-01-30T16:39:02;11.93;;;7.33;;
12792;SDS011;6460;42.684;23.260;2024-01-30T16:41:35;12.30;;;6.70;;
12792;SDS011;6460;42.684;23.260;2024-01-30T16:44:03;10.30;;;6.50;;
12792;SDS011;6460;42.684;23.260;2024-01-30T16:46:31;10.57;;;6.90;;
12792;SDS011;6460;42.684;23.260;2024-01-30T16:49:01;11.10;;;7.03;;
12792;SDS011;6460;42.684;23.260;2024-01-30T16:51:28;10.30;;;6.80;;
12792;SDS011;6460;42.684;23.260;2024-01-30T16:53:59;10.10;;;6.93;;
12792;SDS011;6460;42.684;23.260;2024-01-30T16:56:27;10.97;;;7.23;;
12792;SDS011;6460;42.684;23.260;2024-01-30T16:58:57;10.07;;;7.00;;
12792;SDS011;6460;42.684;23.260;2024-01-30T17:01:24;8.93;;;6.90;;
12792;SDS011;6460;42.684;23.260;2024-01-30T17:03:51;14.30;;;7.80;;
12792;SDS011;6460;42.684;23.260;2024-01-30T17:06:30;12.87;;;7.23;;
12792;SDS011;6460;42.684;23.260;2024-01-30T17:09:14;10.73;;;7.73;;
12792;SDS011;6460;42.684;23.260;2024-01-30T17:11:42;14.50;;;7.87;;
12792;SDS011;6460;42.684;23.260;2024-01-30T17:14:09;15.47;;;9.97;;
12792;SDS011;6460;42.684;23.260;2024-01-30T17:16:39;29.90;;;17.57;;
12792;SDS011;6460;42.684;23.260;2024-01-30T17:19:13;20.93;;;14.17;;
12792;SDS011;6460;42.684;23.260;2024-01-30T17:21:41;15.40;;;9.73;;
12792;SDS011;6460;42.684;23.260;2024-01-30T17:37:41;13.47;;;8.90;;
12792;SDS011;6460;42.684;23.260;2024-01-30T17:40:17;13.47;;;7.70;;
12792;SDS011;6460;42.684;23.260;2024-01-30T17:46:55;9.97;;;7.23;;
12792;SDS011;6460;42.684;23.260;2024-01-30T17:49:22;13.83;;;7.43;;
12792;SDS011;6460;42.684;23.260;2024-01-30T17:51:54;12.83;;;7.37;;
12792;SDS011;6460;42.684;23.260;2024-01-30T17:54:22;9.67;;;7.00;;
12792;SDS011;6460;42.684;23.260;2024-01-30T17:56:49;12.67;;;7.67;;
12792;SDS011;6460;42.684;23.260;2024-01-30T17:59:16;9.63;;;6.80;;
12792;SDS011;6460;42.684;23.260;2024-01-30T18:01:46;12.07;;;7.27;;
12792;SDS011;6460;42.684;23.260;2024-01-30T18:04:17;11.33;;;6.63;;
12792;SDS011;6460;42.684;23.260;2024-01-30T18:06:48;10.57;;;7.27;;
12792;SDS011;6460;42.684;23.260;2024-01-30T18:09:16;12.27;;;7.27;;
12792;SDS011;6460;42.684;23.260;2024-01-30T18:11:43;10.93;;;6.90;;
12792;SDS011;6460;42.684;23.260;2024-01-30T18:14:11;11.73;;;6.47;;
12792;SDS011;6460;42.684;23.260;2024-01-30T18:16:39;11.60;;;6.87;;
12792;SDS011;6460;42.684;23.260;2024-01-30T18:19:09;13.60;;;7.97;;
12792;SDS011;6460;42.684;23.260;2024-01-30T18:21:37;11.07;;;7.03;;
12792;SDS011;6460;42.684;23.260;2024-01-30T18:24:07;9.97;;;7.13;;
12792;SDS011;6460;42.684;23.260;2024-01-30T18:26:41;12.80;;;7.07;;
12792;SDS011;6460;42.684;23.260;2024-01-30T18:29:12;12.53;;;7.80;;
12792;SDS011;6460;42.684;23.260;2024-01-30T18:31:39;12.47;;;7.30;;
12792;SDS011;6460;42.684;23.260;2024-01-30T18:34:08;9.37;;;6.47;;
12792;SDS011;6460;42.684;23.260;2024-01-30T18:36:40;10.20;;;7.30;;
12792;SDS011;6460;42.684;23.260;2024-01-30T18:39:09;11.03;;;7.23;;
12792;SDS011;6460;42.684;23.260;2024-01-30T18:41:37;10.73;;;7.60;;
12792;SDS011;6460;42.684;23.260;2024-01-30T18:44:05;9.20;;;7.13;;
12792;SDS011;6460;42.684;23.260;2024-01-30T18:46:33;12.23;;;8.03;;
12792;SDS011;6460;42.684;23.260;2024-01-30T18:49:03;11.37;;;7.53;;
12792;SDS011;6460;42.684;23.260;2024-01-30T18:51:31;11.27;;;7.47;;
12792;SDS011;6460;42.684;23.260;2024-01-30T18:54:06;10.87;;;6.77;;
12792;SDS011;6460;42.684;23.260;2024-01-30T18:56:33;10.53;;;7.10;;
12792;SDS011;6460;42.684;23.260;2024-01-30T18:59:04;12.87;;;7.73;;
12792;SDS011;6460;42.684;23.260;2024-01-30T19:01:34;12.43;;;7.80;;
12792;SDS011;6460;42.684;23.260;2024-01-30T19:04:04;14.50;;;8.60;;
12792;SDS011;6460;42.684;23.260;2024-01-30T19:06:32;11.13;;;8.43;;
12792;SDS011;6460;42.684;23.260;2024-01-30T19:09:00;18.03;;;10.27;;
12792;SDS011;6460;42.684;23.260;2024-01-30T19:11:29;22.90;;;11.87;;
12792;SDS011;6460;42.684;23.260;2024-01-30T19:13:56;20.13;;;12.00;;
12792;SDS011;6460;42.684;23.260;2024-01-30T19:16:24;20.93;;;11.90;;
12792;SDS011;6460;42.684;23.260;2024-01-30T19:18:51;20.93;;;11.03;;
12792;SDS011;6460;42.684;23.260;2024-01-30T19:21:18;24.67;;;13.17;;
12792;SDS011;6460;42.684;23.260;2024-01-30T19:23:45;19.87;;;12.10;;
12792;SDS011;6460;42.684;23.260;2024-01-30T19:26:12;21.90;;;12.97;;
12792;SDS011;6460;42.684;23.260;2024-01-30T19:28:42;28.30;;;15.60;;
12792;SDS011;6460;42.684;23.260;2024-01-30T19:31:17;47.13;;;26.03;;
12792;SDS011;6460;42.684;23.260;2024-01-30T19:33:45;46.93;;;27.50;;
12792;SDS011;6460;42.684;23.260;2024-01-30T19:36:12;49.43;;;28.47;;
12792;SDS011;6460;42.684;23.260;2024-01-30T19:38:39;51.83;;;26.57;;
12792;SDS011;6460;42.684;23.260;2024-01-30T21:04:08;31.27;;;18.83;;
12792;SDS011;6460;42.684;23.260;2024-01-30T21:12:08;28.47;;;17.13;;
12792;SDS011;6460;42.684;23.260;2024-01-30T21:25:03;37.80;;;21.67;;
12792;SDS011;6460;42.684;23.260;2024-01-30T21:27:31;36.53;;;20.30;;
12792;SDS011;6460;42.684;23.260;2024-01-30T21:30:06;35.67;;;20.23;;
12792;SDS011;6460;42.684;23.260;2024-01-30T21:32:38;39.60;;;20.87;;
12792;SDS011;6460;42.684;23.260;2024-01-30T21:35:07;36.80;;;21.83;;
12792;SDS011;6460;42.684;23.260;2024-01-30T21:37:35;32.37;;;18.47;;
12792;SDS011;6460;42.684;23.260;2024-01-30T21:42:53;31.60;;;17.57;;
12792;SDS011;6460;42.684;23.260;2024-01-30T21:47:56;25.90;;;15.37;;
12792;SDS011;6460;42.684;23.260;2024-01-30T21:50:26;32.03;;;16.57;;
12792;SDS011;6460;42.684;23.260;2024-01-30T21:52:55;22.30;;;13.27;;
12792;SDS011;6460;42.684;23.260;2024-01-30T22:05:48;23.67;;;15.67;;
12792;SDS011;6460;42.684;23.260;2024-01-30T22:13:29;29.80;;;18.67;;
12792;SDS011;6460;42.684;23.260;2024-01-30T22:16:13;33.73;;;20.87;;
12792;SDS011;6460;42.684;23.260;2024-01-30T22:44:28;28.93;;;16.03;;
12792;SDS011;6460;42.684;23.260;2024-01-30T22:46:56;27.60;;;15.80;;
12792;SDS011;6460;42.684;23.260;2024-01-30T22:49:24;25.93;;;15.70;;
12792;SDS011;6460;42.684;23.260;2024-01-30T22:57:13;25.80;;;14.47;;
12792;SDS011;6460;42.684;23.260;2024-01-30T23:02:19;31.97;;;17.23;;
12792;SDS011;6460;42.684;23.260;2024-01-30T23:07:25;30.23;;;17.30;;
12792;SDS011;6460;42.684;23.260;2024-01-30T23:09:53;33.27;;;20.27;;
12792;SDS011;6460;42.684;23.260;2024-01-30T23:12:21;43.80;;;24.90;;
12792;SDS011;6460;42.684;23.260;2024-01-30T23:20:01;39.07;;;22.27;;
12792;SDS011;6460;42.684;23.260;2024-01-30T23:22:30;46.10;;;25.77;;
